Time;durP1;ratioP1;P1;durP2;ratioP2;P2;SDS_P1;SDS_P2;PMS_P1;PMS_P2;Temp;Humidity;BMP_temperature;BMP_pressure;BME280_temperature;BME280_humidity;BME280_pressure;Samples;Min_cycle;Max_cycle;Signal;HPM_P1;HPM_P2
2021/12/24 00:02:44;;;;;;;52.97;28.13;;;;;;;3.82;100.00;97010.59;10428083;28;20047;-56
2021/12/24 00:07:48;;;;;;;56.65;29.75;;;;;;;3.76;100.00;97000.53;10382172;28;20061;-57
2021/12/24 00:12:59;;;;;;;57.35;29.10;;;;;;;3.76;100.00;97009.38;10365236;28;20038;-58
2021/12/24 00:18:09;;;;;;;59.22;30.30;;;;;;;3.78;100.00;97009.22;10376023;28;20406;-58
2021/12/24 00:39:18;;;;;;;40.15;22.40;;;;;;;3.90;100.00;97021.31;10380981;28;20152;-59
2021/12/24 00:44:22;;;;;;;39.38;21.80;;;;;;;3.91;100.00;97011.47;10376801;28;20045;-55
2021/12/24 00:49:26;;;;;;;41.55;22.77;;;;;;;3.92;100.00;97008.69;10375306;28;20430;-61
2021/12/24 00:59:51;;;;;;;37.28;21.35;;;;;;;3.95;100.00;96992.34;10371102;28;20549;-58
2021/12/24 01:04:56;;;;;;;39.50;22.15;;;;;;;3.95;100.00;96984.38;10390897;23;20436;-83
2021/12/24 01:09:59;;;;;;;36.53;20.63;;;;;;;3.96;100.00;96987.88;10447796;28;20090;-82
2021/12/24 01:15:06;;;;;;;33.67;18.65;;;;;;;3.97;100.00;96985.06;10468201;28;20033;-83
2021/12/24 01:20:21;;;;;;;24.80;15.18;;;;;;;4.08;100.00;96988.44;10442528;28;20045;-83
2021/12/24 01:25:30;;;;;;;21.83;13.68;;;;;;;4.12;100.00;96989.81;10451703;28;20567;-84
2021/12/24 01:42:40;;;;;;;18.63;11.50;;;;;;;4.23;100.00;96989.56;10441329;28;20091;-83
2021/12/24 01:46:57;;;;;;;15.07;8.90;;;;;;;4.29;100.00;96980.94;10438184;28;20140;-84
2021/12/24 01:52:03;;;;;;;12.77;8.32;;;;;;;4.33;100.00;96973.47;10440592;28;20051;-83
2021/12/24 01:57:09;;;;;;;14.40;7.82;;;;;;;4.38;100.00;96975.66;10444632;28;20534;-83
2021/12/24 02:02:15;;;;;;;9.38;6.18;;;;;;;4.39;100.00;96969.34;10466754;28;20102;-83
2021/12/24 02:07:18;;;;;;;5.43;3.90;;;;;;;4.59;100.00;96977.91;10397359;28;20057;-85
2021/12/24 02:12:23;;;;;;;8.70;5.70;;;;;;;4.54;100.00;96957.06;10363385;28;20060;-83
2021/12/24 02:17:51;;;;;;;8.80;5.90;;;;;;;4.51;100.00;96968.06;10378075;23;20527;-61
2021/12/24 02:28:28;;;;;;;8.75;4.97;;;;;;;4.46;100.00;96967.69;10416574;28;20067;-64
2021/12/24 02:33:31;;;;;;;;;;;;;;;4.45;100.00;96958.88;10418649;28;20055;-59
2021/12/24 02:38:36;;;;;;;4.75;3.80;;;;;;;4.44;100.00;96951.88;10420913;28;19948;-63
2021/12/24 02:43:40;;;;;;;3.92;2.83;;;;;;;4.47;100.00;96942.72;10417275;28;20390;-64
2021/12/24 02:49:08;;;;;;;4.20;2.80;;;;;;;4.50;100.00;96939.72;10437455;28;20115;-61
2021/12/24 02:54:14;;;;;;;4.13;2.47;;;;;;;4.54;100.00;96934.91;10416173;28;20051;-64
2021/12/24 02:59:18;;;;;;;3.40;2.38;;;;;;;4.57;100.00;96934.59;10420468;28;20139;-65
2021/12/24 03:04:22;;;;;;;4.70;2.45;;;;;;;4.61;100.00;96939.44;10418621;28;20044;-59
2021/12/24 03:09:26;;;;;;;2.78;2.22;;;;;;;4.63;100.00;96948.13;10419940;28;20052;-63
2021/12/24 03:14:30;;;;;;;3.35;2.38;;;;;;;4.63;100.00;96936.59;10435140;28;20067;-65
2021/12/24 03:19:33;;;;;;;3.45;2.25;;;;;;;4.60;100.00;96937.78;10395578;28;20057;-60
2021/12/24 03:24:40;;;;;;;2.38;2.17;;;;;;;4.63;100.00;96933.94;10376800;28;20115;-63
2021/12/24 03:29:43;;;;;;;3.03;2.40;;;;;;;4.65;100.00;96934.63;10377707;28;20081;-61
2021/12/24 03:34:47;;;;;;;3.10;2.33;;;;;;;4.67;100.00;96923.78;10377870;28;20041;-61
2021/12/24 03:39:51;;;;;;;4.32;2.88;;;;;;;4.71;100.00;96917.13;10378549;28;20045;-59
2021/12/24 03:45:04;;;;;;;3.75;3.10;;;;;;;4.76;100.00;96920.16;10395813;28;20581;-61
2021/12/24 03:50:11;;;;;;;3.33;2.90;;;;;;;4.79;100.00;96909.16;10376652;28;20336;-61
2021/12/24 03:55:17;;;;;;;3.30;2.75;;;;;;;4.83;100.00;96905.16;10380929;28;20460;-61
2021/12/24 04:00:25;;;;;;;4.70;3.00;;;;;;;4.82;100.00;96889.34;10403475;28;20053;-60
2021/12/24 04:05:48;;;;;;;6.25;3.60;;;;;;;4.87;100.00;96901.19;10402159;28;20056;-60
2021/12/24 04:10:52;;;;;;;6.95;4.65;;;;;;;4.94;100.00;96898.69;10404583;28;20056;-61
2021/12/24 04:16:05;;;;;;;8.23;5.47;;;;;;;5.01;100.00;96896.19;10386811;28;20462;-61
2021/12/24 04:26:39;;;;;;;8.57;6.00;;;;;;;5.14;100.00;96891.22;10442559;28;20041;-62
2021/12/24 04:31:45;;;;;;;8.88;7.43;;;;;;;5.20;100.00;96900.41;10439789;28;20159;-64
2021/12/24 05:04:08;;;;;;;11.25;8.35;;;;;;;6.08;100.00;96866.00;10423804;28;20099;-65
2021/12/24 05:09:12;;;;;;;11.70;8.77;;;;;;;6.21;100.00;96866.28;10408864;28;20413;-65
2021/12/24 05:14:18;;;;;;;14.38;8.48;;;;;;;6.27;100.00;96862.91;10417041;28;20045;-65
2021/12/24 05:25:11;;;;;;;9.75;7.40;;;;;;;6.44;100.00;96861.00;10408878;28;20296;-64
2021/12/24 05:30:15;;;;;;;8.68;7.07;;;;;;;6.42;100.00;96863.00;10390941;28;20421;-64
2021/12/24 05:35:19;;;;;;;11.05;6.90;;;;;;;6.47;100.00;96858.00;10390260;28;20118;-65
2021/12/24 05:40:22;;;;;;;9.13;6.53;;;;;;;6.64;100.00;96844.53;10411567;28;20080;-63
2021/12/24 05:45:27;;;;;;;7.22;5.60;;;;;;;6.64;100.00;96855.25;10389671;28;20127;-64
2021/12/24 05:50:53;;;;;;;8.77;5.90;;;;;;;6.81;100.00;96860.50;10400040;28;20072;-64
2021/12/24 05:56:15;;;;;;;6.13;5.30;;;;;;;6.88;100.00;96854.25;10427214;28;20045;-62
2021/12/24 06:01:23;;;;;;;7.30;5.07;;;;;;;6.86;100.00;96858.13;10430345;28;20510;-65
2021/12/24 06:06:35;;;;;;;6.03;4.80;;;;;;;6.91;100.00;96853.06;10456572;28;20029;-62
2021/12/24 06:11:38;;;;;;;5.43;4.53;;;;;;;7.07;100.00;96839.59;10429793;28;20060;-64
2021/12/24 06:16:48;;;;;;;6.22;4.93;;;;;;;7.05;100.00;96841.59;10417576;28;20121;-63
2021/12/24 06:28:38;;;;;;;6.90;4.22;;;;;;;7.14;100.00;96857.59;10391927;28;20041;-64
2021/12/24 06:33:44;;;;;;;4.82;3.97;;;;;;;7.13;100.00;96869.31;10405838;28;20301;-64
2021/12/24 06:38:47;;;;;;;4.78;3.78;;;;;;;7.13;100.00;96861.28;10422438;28;20529;-64
2021/12/24 06:43:50;;;;;;;4.78;3.67;;;;;;;7.21;100.00;96861.25;10397327;28;20042;-65
2021/12/24 06:48:56;;;;;;;4.30;3.30;;;;;;;7.22;100.00;96866.44;10396189;28;20339;-63
2021/12/24 06:54:00;;;;;;;4.15;3.55;;;;;;;7.35;100.00;96881.88;10395054;28;20041;-64
2021/12/24 06:59:04;;;;;;;4.38;3.35;;;;;;;7.38;100.00;96888.75;10377063;28;20053;-62
2021/12/24 07:04:10;;;;;;;8.15;3.58;;;;;;;7.35;100.00;96886.44;10378911;28;20506;-63
2021/12/24 07:09:14;;;;;;;4.78;3.42;;;;;;;7.36;100.00;96883.56;10369831;23;20504;-64
2021/12/24 07:14:18;;;;;;;5.45;3.30;;;;;;;7.40;100.00;96906.31;10381051;28;20478;-67
2021/12/24 07:19:23;;;;;;;3.90;2.80;;;;;;;7.38;100.00;96905.66;10396020;28;20124;-66
2021/12/24 07:24:26;;;;;;;4.35;3.05;;;;;;;7.48;100.00;96915.28;10391353;28;20040;-65
2021/12/24 07:29:31;;;;;;;5.47;3.10;;;;;;;7.40;100.00;96911.66;10413989;22;20137;-80
2021/12/24 07:34:36;;;;;;;4.35;2.97;;;;;;;7.46;100.00;96901.25;10416476;28;20085;-78
2021/12/24 07:39:39;;;;;;;5.30;3.28;;;;;;;7.45;100.00;96894.22;10439559;28;20448;-78
2021/12/24 07:44:43;;;;;;;4.82;2.92;;;;;;;7.43;100.00;96897.06;10421304;28;20055;-78
2021/12/24 07:49:50;;;;;;;3.30;2.72;;;;;;;7.48;100.00;96894.69;10419688;28;20494;-78
2021/12/24 07:54:55;;;;;;;3.60;2.50;;;;;;;7.52;100.00;96868.38;10423278;28;20071;-78
2021/12/24 08:00:19;;;;;;;3.17;2.45;;;;;;;7.57;100.00;96900.84;10420078;28;20500;-78
2021/12/24 08:05:25;;;;;;;3.20;2.78;;;;;;;7.58;100.00;96899.81;10440982;28;20048;-79
2021/12/24 08:10:30;;;;;;;3.78;2.70;;;;;;;7.57;100.00;96887.44;10423224;28;20071;-79
2021/12/24 08:15:33;;;;;;;4.63;2.97;;;;;;;7.55;100.00;96892.97;10394728;28;20049;-79
2021/12/24 08:20:38;;;;;;;2.47;2.20;;;;;;;7.56;100.00;96885.78;10435253;28;20509;-79
2021/12/24 08:25:41;;;;;;;3.05;2.25;;;;;;;7.49;100.00;96892.84;10488651;28;20043;-77
2021/12/24 08:30:44;;;;;;;3.65;2.28;;;;;;;7.52;100.00;96895.16;10477765;28;20424;-76
2021/12/24 08:35:49;;;;;;;2.80;2.00;;;;;;;7.62;100.00;96897.63;10473282;28;20051;-76
2021/12/24 08:40:52;;;;;;;2.90;1.77;;;;;;;7.65;100.00;96914.16;10476357;28;20056;-77
2021/12/24 08:45:56;;;;;;;2.17;1.92;;;;;;;7.72;100.00;96908.91;10481792;28;20120;-75
2021/12/24 08:51:00;;;;;;;3.63;2.15;;;;;;;7.67;100.00;96911.28;10484456;28;20036;-76
2021/12/24 08:56:04;;;;;;;3.22;1.77;;;;;;;7.74;100.00;96914.09;10483702;28;20045;-74
2021/12/24 09:01:07;;;;;;;2.50;1.80;;;;;;;7.67;100.00;96898.75;10493577;28;20505;-75
2021/12/24 09:06:11;;;;;;;1.63;1.40;;;;;;;7.73;100.00;96891.81;10483304;28;20040;-75
2021/12/24 09:11:14;;;;;;;1.85;1.48;;;;;;;7.72;100.00;96892.84;10485249;28;20036;-75
2021/12/24 09:16:19;;;;;;;2.15;1.60;;;;;;;7.77;100.00;96887.75;10484720;28;20046;-75
2021/12/24 09:21:23;;;;;;;1.40;1.30;;;;;;;7.84;100.00;96888.69;10460996;28;20465;-75
2021/12/24 09:26:29;;;;;;;4.20;1.38;;;;;;;7.83;100.00;96891.53;10457569;28;20053;-75
2021/12/24 09:31:32;;;;;;;2.78;1.65;;;;;;;7.87;100.00;96892.84;10463881;28;20421;-75
2021/12/24 09:36:38;;;;;;;2.17;1.60;;;;;;;7.84;100.00;96894.06;10466071;28;20049;-75
2021/12/24 09:41:41;;;;;;;2.10;1.40;;;;;;;7.87;100.00;96882.13;10463340;28;20048;-75
2021/12/24 09:46:44;;;;;;;3.28;1.70;;;;;;;7.94;100.00;96866.97;10480817;28;20496;-74
2021/12/24 09:51:51;;;;;;;2.38;1.75;;;;;;;8.00;100.00;96860.91;10480967;28;20496;-75
2021/12/24 09:56:56;;;;;;;2.67;1.80;;;;;;;8.12;100.00;96863.13;10482775;28;20059;-75
2021/12/24 10:02:01;;;;;;;3.95;1.88;;;;;;;8.17;100.00;96860.72;10482672;28;20367;-74
2021/12/24 10:07:08;;;;;;;4.47;1.90;;;;;;;8.22;100.00;96865.53;10463212;28;20056;-74
2021/12/24 10:12:13;;;;;;;2.45;1.80;;;;;;;8.22;100.00;96838.72;10482064;28;20045;-74
2021/12/24 10:17:22;;;;;;;3.47;1.90;;;;;;;8.23;100.00;96843.88;10477546;28;20476;-75
2021/12/24 10:22:26;;;;;;;1.95;1.70;;;;;;;8.29;100.00;96818.97;10464390;28;20057;-75
2021/12/24 10:27:31;;;;;;;4.13;2.10;;;;;;;8.28;100.00;96813.81;10463681;28;20075;-75
2021/12/24 10:32:39;;;;;;;3.72;1.90;;;;;;;8.31;100.00;96811.56;10486963;28;20048;-75
2021/12/24 10:37:43;;;;;;;3.80;2.20;;;;;;;8.37;100.00;96812.69;10481430;28;20052;-74
2021/12/24 10:42:50;;;;;;;2.97;2.20;;;;;;;8.32;100.00;96802.50;10481021;28;20043;-76
2021/12/24 10:47:53;;;;;;;4.85;2.30;;;;;;;8.29;100.00;96804.75;10477521;28;20033;-75
2021/12/24 10:53:15;;;;;;;5.82;2.25;;;;;;;8.29;100.00;96816.28;10476909;28;20048;-75
2021/12/24 10:58:21;;;;;;;4.45;2.45;;;;;;;8.26;100.00;96803.28;10475884;28;20042;-75
2021/12/24 11:03:27;;;;;;;4.93;2.40;;;;;;;8.29;100.00;96799.38;10482374;28;20489;-77
2021/12/24 11:08:32;;;;;;;5.38;2.15;;;;;;;8.25;100.00;96816.84;10480354;28;20045;-74
2021/12/24 11:13:39;;;;;;;3.88;2.30;;;;;;;8.25;100.00;96806.13;10479735;28;20051;-74
2021/12/24 11:18:46;;;;;;;4.13;2.35;;;;;;;8.24;100.00;96816.03;10459364;28;20339;-76
2021/12/24 11:23:51;;;;;;;4.60;2.20;;;;;;;8.20;100.00;96827.34;10479294;28;20123;-76
2021/12/24 11:28:55;;;;;;;3.95;2.40;;;;;;;8.25;100.00;96820.38;10476088;28;20051;-77
2021/12/24 11:33:59;;;;;;;4.40;2.50;;;;;;;8.15;100.00;96843.97;10485009;28;20052;-74
2021/12/24 11:39:07;;;;;;;5.90;2.70;;;;;;;8.11;100.00;96834.63;10488102;28;20141;-73
2021/12/24 11:44:13;;;;;;;4.93;3.00;;;;;;;8.12;100.00;96833.63;10477123;28;20560;-75
2021/12/24 11:49:16;;;;;;;6.10;2.83;;;;;;;8.15;100.00;96841.31;10478038;28;20068;-75
2021/12/24 11:54:21;;;;;;;4.95;2.83;;;;;;;8.02;100.00;96836.56;10482307;28;20072;-75
2021/12/24 11:59:36;;;;;;;5.72;3.05;;;;;;;8.01;100.00;96825.00;10478929;28;20145;-75
2021/12/24 12:04:39;;;;;;;5.82;3.00;;;;;;;7.97;100.00;96829.06;10475361;28;20139;-74
2021/12/24 12:09:46;;;;;;;5.18;2.83;;;;;;;8.03;100.00;96822.13;10480309;28;20045;-75
2021/12/24 12:14:49;;;;;;;6.15;2.83;;;;;;;8.12;100.00;96815.66;10459509;28;20048;-75
2021/12/24 12:19:59;;;;;;;7.93;2.95;;;;;;;8.12;100.00;96802.25;10468548;28;20212;-74
2021/12/24 12:25:07;;;;;;;4.97;2.60;;;;;;;8.09;100.00;96804.47;10486167;28;20040;-77
2021/12/24 12:30:28;;;;;;;6.22;2.53;;;;;;;8.10;100.00;96795.41;10487948;28;20130;-75
2021/12/24 12:35:36;;;;;;;8.25;2.80;;;;;;;8.07;100.00;96788.56;10473036;28;20041;-75
2021/12/24 12:40:40;;;;;;;5.32;2.45;;;;;;;8.04;100.00;96785.44;10492646;28;20048;-76
2021/12/24 12:46:02;;;;;;;6.43;2.65;;;;;;;8.06;100.00;96784.22;10491646;28;20062;-77
2021/12/24 12:51:05;;;;;;;5.95;2.83;;;;;;;8.08;100.00;96792.06;10487006;28;20041;-74
2021/12/24 12:56:16;;;;;;;6.18;3.00;;;;;;;8.02;100.00;96796.34;10483977;28;20044;-74
2021/12/24 13:01:21;;;;;;;5.40;2.90;;;;;;;7.95;100.00;96790.06;10483627;28;20045;-74
2021/12/24 13:06:46;;;;;;;6.60;3.10;;;;;;;8.10;100.00;96795.41;10466701;28;20051;-76
2021/12/24 13:11:53;;;;;;;5.03;3.20;;;;;;;8.12;100.00;96788.03;10465506;28;20056;-76
2021/12/24 13:17:16;;;;;;;7.22;3.28;;;;;;;8.20;100.00;96785.22;10492687;28;20748;-75
2021/12/24 13:22:28;;;;;;;8.20;3.80;;;;;;;8.13;100.00;96779.78;10492128;28;20044;-74
2021/12/24 13:27:37;;;;;;;6.72;3.38;;;;;;;8.10;100.00;96782.00;10472793;28;20238;-78
2021/12/24 13:32:43;;;;;;;9.77;3.88;;;;;;;8.08;100.00;96792.94;10487796;28;20127;-76
2021/12/24 13:37:46;;;;;;;5.60;3.60;;;;;;;8.00;100.00;96793.84;10468740;28;20071;-76
2021/12/24 13:42:53;;;;;;;8.57;3.80;;;;;;;8.08;100.00;96792.06;10476527;28;20139;-76
2021/12/24 13:48:01;;;;;;;8.20;3.80;;;;;;;8.02;100.00;96799.03;10479815;28;20505;-76
2021/12/24 13:58:32;;;;;;;10.63;4.18;;;;;;;7.94;100.00;96807.16;10491460;28;20116;-74
2021/12/24 14:03:36;;;;;;;8.23;3.72;;;;;;;7.89;100.00;96826.50;10465068;28;20102;-73
2021/12/24 14:08:39;;;;;;;9.38;3.70;;;;;;;7.93;100.00;96814.38;10461540;28;20044;-74
2021/12/24 14:13:51;;;;;;;8.70;4.03;;;;;;;7.91;100.00;96811.06;10483826;28;20047;-73
2021/12/24 14:19:09;;;;;;;9.23;3.90;;;;;;;7.85;100.00;96823.34;10487548;28;20040;-73
2021/12/24 14:24:18;;;;;;;8.77;3.20;;;;;;;7.87;100.00;96833.88;10483380;28;20480;-72
2021/12/24 14:29:29;;;;;;;8.55;3.30;;;;;;;7.93;100.00;96822.44;10481429;28;20127;-73
2021/12/24 14:34:37;;;;;;;10.15;3.30;;;;;;;7.96;100.00;96840.00;10481734;28;20045;-73
2021/12/24 14:39:44;;;;;;;8.18;2.97;;;;;;;7.95;100.00;96828.41;10477001;28;20055;-73
2021/12/24 14:44:54;;;;;;;6.82;3.10;;;;;;;7.91;100.00;96832.50;10463108;28;20059;-73
2021/12/24 14:50:04;;;;;;;6.72;2.85;;;;;;;7.91;100.00;96824.47;10473540;28;20040;-74
2021/12/24 14:55:16;;;;;;;9.05;2.88;;;;;;;7.92;100.00;96827.97;10482681;28;20048;-74
2021/12/24 15:00:25;;;;;;;6.03;2.92;;;;;;;7.92;100.00;96831.50;10481937;28;20063;-73
2021/12/24 15:05:32;;;;;;;11.07;3.33;;;;;;;7.91;100.00;96832.50;10483696;28;21262;-74
2021/12/24 15:10:34;;;;;;;6.03;2.70;;;;;;;7.86;100.00;96848.28;10480445;28;20045;-73
2021/12/24 15:15:39;;;;;;;9.82;3.33;;;;;;;7.85;100.00;96828.72;10483798;28;20405;-73
2021/12/24 15:20:43;;;;;;;5.55;2.75;;;;;;;7.82;100.00;96844.34;10483583;28;20051;-73
2021/12/24 15:25:48;;;;;;;7.57;2.50;;;;;;;7.82;100.00;96834.44;10480537;28;20064;-73
2021/12/24 15:30:54;;;;;;;10.50;2.85;;;;;;;7.84;100.00;96850.31;10456976;28;20496;-73
2021/12/24 15:35:57;;;;;;;9.05;2.85;;;;;;;7.83;100.00;96829.88;10485895;28;20040;-75
2021/12/24 15:41:01;;;;;;;6.32;2.70;;;;;;;7.70;100.00;96860.81;10484192;28;20059;-75
2021/12/24 15:46:07;;;;;;;5.93;2.30;;;;;;;7.75;100.00;96843.38;10511062;28;20078;-75
2021/12/24 15:51:10;;;;;;;7.25;2.42;;;;;;;7.76;100.00;96839.69;10483016;28;20056;-74
2021/12/24 15:56:14;;;;;;;8.98;2.78;;;;;;;7.75;100.00;96841.56;10486784;28;20507;-73
2021/12/24 16:01:22;;;;;;;8.45;2.63;;;;;;;7.76;100.00;96831.66;10487996;28;20040;-75
2021/12/24 16:06:26;;;;;;;7.32;2.72;;;;;;;7.75;100.00;96846.91;10486193;28;20127;-75
2021/12/24 16:11:29;;;;;;;7.60;2.70;;;;;;;7.69;100.00;96853.84;10489158;28;20078;-75
2021/12/24 16:16:34;;;;;;;8.93;2.90;;;;;;;7.67;100.00;96842.44;10493381;28;20506;-76
2021/12/24 16:21:37;;;;;;;6.22;2.80;;;;;;;7.69;100.00;96843.09;10494771;28;20375;-74
2021/12/24 16:26:40;;;;;;;7.63;2.70;;;;;;;7.64;100.00;96842.00;10503916;28;20041;-75
2021/12/24 16:31:46;;;;;;;8.57;2.35;;;;;;;7.65;100.00;96833.75;10490738;28;20488;-75
2021/12/24 16:36:50;;;;;;;5.78;2.65;;;;;;;7.63;100.00;96822.38;10464944;28;20064;-74
2021/12/24 16:41:53;;;;;;;5.60;2.50;;;;;;;7.66;100.00;96821.19;10467931;28;20056;-74
2021/12/24 16:46:57;;;;;;;7.15;2.70;;;;;;;7.59;100.00;96815.72;10486170;28;20425;-76
2021/12/24 16:52:01;;;;;;;9.35;2.78;;;;;;;7.55;100.00;96825.16;10486976;28;20050;-75
2021/12/24 16:57:06;;;;;;;7.10;2.70;;;;;;;7.55;100.00;96835.88;10483321;28;20055;-76
2021/12/24 17:02:13;;;;;;;9.73;3.10;;;;;;;7.52;100.00;96842.44;10465577;28;20048;-75
2021/12/24 17:07:16;;;;;;;6.93;2.50;;;;;;;7.59;100.00;96850.56;10479476;28;20120;-73
2021/12/24 17:12:19;;;;;;;10.38;2.78;;;;;;;7.56;100.00;96850.94;10485352;28;20048;-75
2021/12/24 17:17:27;;;;;;;9.45;2.78;;;;;;;7.56;100.00;96851.75;10487922;28;20044;-74
2021/12/24 17:22:30;;;;;;;6.80;2.50;;;;;;;7.52;100.00;96836.22;10489149;28;20036;-75
2021/12/24 17:27:34;;;;;;;6.63;2.38;;;;;;;7.48;100.00;96826.88;10485388;28;20044;-74
2021/12/24 17:32:38;;;;;;;19.02;3.13;;;;;;;7.46;100.00;96847.69;10484568;28;20056;-74
2021/12/24 17:37:42;;;;;;;8.40;3.03;;;;;;;7.44;100.00;96919.34;10467804;28;20356;-75
2021/12/24 17:42:47;;;;;;;0.98;0.60;;;;;;;4.97;100.00;96942.91;10472649;28;20385;-77
2021/12/24 17:47:54;;;;;;;0.57;0.50;;;;;;;3.76;100.00;96949.94;10463555;28;20055;-74
2021/12/24 17:52:57;;;;;;;2.72;0.73;;;;;;;3.02;100.00;96971.38;10481815;28;20051;-76
2021/12/24 17:58:00;;;;;;;1.05;0.80;;;;;;;2.55;100.00;96989.09;10484897;28;20052;-76
2021/12/24 18:03:04;;;;;;;1.38;1.27;;;;;;;2.16;100.00;96981.25;10481660;28;20057;-75
2021/12/24 18:08:07;;;;;;;2.20;2.00;;;;;;;1.93;100.00;96999.34;10485352;28;20036;-78
2021/12/24 18:13:18;;;;;;;1.63;1.50;;;;;;;1.67;100.00;97002.59;10439632;22;20049;-82
2021/12/24 18:18:22;;;;;;;3.78;2.47;;;;;;;1.43;100.00;97019.75;10432324;28;20045;-82
2021/12/24 18:23:25;;;;;;;4.05;3.28;;;;;;;1.32;100.00;97039.28;10405280;28;20053;-84
2021/12/24 18:28:29;;;;;;;3.13;2.83;;;;;;;1.17;100.00;97049.47;10409007;28;20403;-86
2021/12/24 18:33:34;;;;;;;16.85;7.25;;;;;;;1.18;100.00;97069.72;10422106;28;20111;-85
2021/12/24 18:38:39;;;;;;;4.50;3.72;;;;;;;1.20;100.00;97066.91;10412387;28;20051;-86
2021/12/24 18:43:42;;;;;;;4.82;3.78;;;;;;;1.18;100.00;97068.84;10422160;28;20861;-86
2021/12/24 18:48:47;;;;;;;5.97;4.40;;;;;;;1.08;100.00;97068.84;10418842;28;20041;-86
2021/12/24 18:53:50;;;;;;;5.97;4.07;;;;;;;1.03;100.00;97076.34;10407909;28;20049;-86
2021/12/24 18:58:53;;;;;;;7.60;5.00;;;;;;;0.97;100.00;97082.22;10413279;28;20406;-85
2021/12/24 19:03:59;;;;;;;8.02;5.20;;;;;;;0.89;100.00;97091.66;10420025;28;20075;-86
2021/12/24 19:09:07;;;;;;;9.60;5.40;;;;;;;0.90;100.00;97097.81;10414183;28;20044;-84
2021/12/24 19:14:13;;;;;;;7.75;4.70;;;;;;;0.91;100.00;97099.50;10428206;28;20071;-86
2021/12/24 19:19:18;;;;;;;5.47;3.95;;;;;;;0.86;100.00;97112.28;10445575;28;20386;-84
2021/12/24 19:24:21;;;;;;;7.55;5.20;;;;;;;0.82;100.00;97122.34;10428866;28;20044;-85
2021/12/24 19:29:26;;;;;;;10.18;6.15;;;;;;;0.76;100.00;97130.81;10428165;28;20397;-85
2021/12/24 19:34:31;;;;;;;12.80;6.63;;;;;;;0.80;100.00;97140.19;10430277;28;20055;-83
2021/12/24 19:39:34;;;;;;;13.57;7.20;;;;;;;0.77;100.00;97141.28;10430886;28;20048;-87
2021/12/24 19:44:39;;;;;;;12.70;6.80;;;;;;;0.75;100.00;97153.81;10424588;28;20084;-85
2021/12/24 19:49:47;;;;;;;12.10;6.65;;;;;;;0.75;100.00;97158.31;10427947;28;20127;-86
2021/12/24 19:54:52;;;;;;;11.05;6.05;;;;;;;0.70;100.00;97166.66;10427833;28;20057;-84
2021/12/24 19:59:55;;;;;;;9.32;5.97;;;;;;;0.71;100.00;97167.47;10445761;28;20061;-85
2021/12/24 20:05:00;;;;;;;12.23;6.40;;;;;;;0.67;100.00;97171.34;10423444;28;20394;-86
2021/12/24 20:10:09;;;;;;;9.05;5.80;;;;;;;0.65;100.00;97173.31;10442216;28;20041;-83
2021/12/24 20:15:13;;;;;;;13.13;7.07;;;;;;;0.59;100.00;97191.41;10460541;28;20053;-85
2021/12/24 20:20:20;;;;;;;9.50;5.57;;;;;;;0.56;100.00;97202.25;10448718;28;20052;-85
2021/12/24 20:25:23;;;;;;;8.13;4.60;;;;;;;0.56;100.00;97207.53;10429258;28;20055;-85
2021/12/24 20:30:27;;;;;;;6.65;4.32;;;;;;;0.45;100.00;97199.66;10439290;23;20468;-83
2021/12/24 20:35:35;;;;;;;7.43;5.32;;;;;;;0.40;100.00;97192.09;10451823;28;20497;-89
2021/12/24 20:40:39;;;;;;;7.32;5.47;;;;;;;0.29;100.00;97200.91;10467059;28;20072;-84
2021/12/24 20:45:51;;;;;;;9.32;6.40;;;;;;;0.31;100.00;97206.09;10452048;28;20053;-85
2021/12/24 20:51:47;;;;;;;11.40;8.02;;;;;;;0.28;100.00;97209.88;10440438;28;20045;-83
2021/12/24 20:56:58;;;;;;;16.33;9.60;;;;;;;0.24;100.00;97223.47;10462588;28;20048;-83
2021/12/24 21:02:02;;;;;;;16.27;9.40;;;;;;;0.16;100.00;97232.06;10466535;28;20080;-86
2021/12/24 21:07:09;;;;;;;19.92;11.52;;;;;;;0.17;100.00;97223.16;10454220;28;20083;-84
2021/12/24 21:12:19;;;;;;;18.55;10.70;;;;;;;0.19;100.00;97237.06;10458301;28;20049;-84
2021/12/24 21:17:28;;;;;;;16.13;10.10;;;;;;;0.17;100.00;97246.97;10453256;28;20440;-84
2021/12/24 21:22:40;;;;;;;14.13;9.38;;;;;;;0.15;100.00;97238.31;10447021;28;20127;-86
2021/12/24 21:28:12;;;;;;;14.15;9.35;;;;;;;0.08;100.00;97234.47;10466710;28;20405;-84
2021/12/24 21:33:17;;;;;;;15.05;10.57;;;;;;;0.01;100.00;97239.41;10415869;28;20060;-85
2021/12/24 21:38:23;;;;;;;17.48;12.18;;;;;;;-0.03;100.00;97251.25;10391667;28;20382;-84
2021/12/24 21:43:36;;;;;;;22.60;14.93;;;;;;;-0.10;100.00;97258.84;10394620;28;20042;-85
2021/12/24 21:48:39;;;;;;;18.63;13.18;;;;;;;-0.08;100.00;97264.84;10384377;28;20529;-87
2021/12/24 21:53:43;;;;;;;14.50;11.05;;;;;;;-0.11;100.00;97267.72;10364036;28;20077;-87
2021/12/24 22:05:53;;;;;;;22.45;15.00;;;;;;;-0.15;100.00;97282.16;10410331;28;20049;-83
2021/12/24 22:23:13;;;;;;;17.92;13.90;;;;;;;-0.28;100.00;97284.97;10443821;28;20033;-90
2021/12/24 22:28:41;;;;;;;25.38;17.48;;;;;;;-0.30;100.00;97299.28;10424228;28;20045;-87
2021/12/24 22:34:40;;;;;;;21.25;15.70;;;;;;;-0.29;100.00;97301.81;10396399;28;20406;-87
2021/12/24 22:40:40;;;;;;;23.55;17.02;;;;;;;-0.32;100.00;97302.03;10395795;28;20104;-84
2021/12/24 22:46:45;;;;;;;20.30;15.35;;;;;;;-0.32;100.00;97316.13;10382259;28;20386;-84
2021/12/24 22:52:00;;;;;;;22.02;15.70;;;;;;;-0.32;100.00;97324.06;10410602;28;20044;-84
2021/12/24 22:57:18;;;;;;;16.45;12.93;;;;;;;-0.34;100.00;97317.19;10380369;28;20077;-84
2021/12/24 23:03:22;;;;;;;18.52;13.63;;;;;;;-0.38;100.00;97332.47;10393665;28;20049;-85
2021/12/24 23:08:27;;;;;;;19.15;13.68;;;;;;;-0.41;100.00;97337.16;10383109;28;20049;-88
2021/12/24 23:13:35;;;;;;;21.20;15.77;;;;;;;-0.39;100.00;97343.19;10403530;28;20478;-84
2021/12/24 23:19:36;;;;;;;24.63;17.67;;;;;;;-0.45;100.00;97347.16;10416578;28;20052;-91
2021/12/24 23:24:45;;;;;;;22.95;16.33;;;;;;;-0.48;100.00;97355.31;10418523;28;20049;-84
2021/12/24 23:29:50;;;;;;;21.65;15.55;;;;;;;-0.52;100.00;97352.06;10422668;28;20087;-84
2021/12/24 23:34:55;;;;;;;18.70;12.43;;;;;;;-0.52;100.00;97361.78;10452003;28;20124;-84
2021/12/24 23:40:12;;;;;;;20.08;13.75;;;;;;;-0.50;100.00;97375.75;10446057;28;20107;-84
2021/12/24 23:45:34;;;;;;;20.95;15.30;;;;;;;-0.49;100.00;97377.44;10448934;28;20580;-83
2021/12/24 23:50:38;;;;;;;24.33;16.92;;;;;;;-0.51;100.00;97372.28;10439552;28;20075;-87
2021/12/24 23:55:46;;;;;;;23.08;17.33;;;;;;;-0.48;100.00;97385.28;10437515;28;20052;-87
